createdAt,value
2019-01-14T00:00:20.667Z,996.41
2019-01-14T00:01:20.632Z,996.48
2019-01-14T00:02:20.639Z,996.46
2019-01-14T00:03:20.649Z,996.65
2019-01-14T00:04:20.662Z,996.49
2019-01-14T00:05:20.677Z,996.43
2019-01-14T00:06:20.683Z,996.43
2019-01-14T00:07:20.694Z,996.33
2019-01-14T00:08:20.708Z,996.41
2019-01-14T00:09:23.365Z,996.58
2019-01-14T00:10:20.758Z,996.51
2019-01-14T00:11:20.743Z,996.51
2019-01-14T00:12:20.756Z,996.55
2019-01-14T00:13:20.768Z,996.57
2019-01-14T00:14:20.883Z,996.64
2019-01-14T00:15:20.788Z,996.74
2019-01-14T00:16:20.795Z,996.68
2019-01-14T00:17:20.813Z,996.71
2019-01-14T00:18:20.815Z,996.72
2019-01-14T00:19:20.837Z,996.76
2019-01-14T00:20:20.839Z,996.75
2019-01-14T00:21:20.852Z,996.73
2019-01-14T00:22:20.859Z,996.80
2019-01-14T00:23:20.879Z,996.82
2019-01-14T00:24:20.883Z,996.85
2019-01-14T00:25:20.898Z,996.88
2019-01-14T00:26:20.908Z,996.84
2019-01-14T00:27:20.927Z,996.87
2019-01-14T00:28:20.931Z,996.84
2019-01-14T00:29:20.953Z,996.91
2019-01-14T00:30:20.961Z,997.02
2019-01-14T00:31:20.959Z,997.05
2019-01-14T00:32:20.973Z,997.03
2019-01-14T00:33:20.982Z,997.09
2019-01-14T00:34:20.997Z,997.04
2019-01-14T00:35:21.005Z,997.06
2019-01-14T00:36:21.019Z,997.07
2019-01-14T00:37:21.026Z,997.11
2019-01-14T00:38:21.035Z,997.13
2019-01-14T00:39:21.053Z,997.17
2019-01-14T00:40:21.057Z,997.18
2019-01-14T00:41:21.077Z,997.17
2019-01-14T00:42:21.085Z,997.20
2019-01-14T00:43:21.102Z,997.23
2019-01-14T00:44:21.104Z,997.20
2019-01-14T00:45:21.115Z,997.23
2019-01-14T00:46:21.126Z,997.29
2019-01-14T00:47:21.136Z,997.32
2019-01-14T00:48:21.155Z,997.33
2019-01-14T00:49:21.166Z,997.39
2019-01-14T00:50:21.170Z,997.35
2019-01-14T00:51:21.183Z,997.40
2019-01-14T00:52:21.197Z,997.44
2019-01-14T00:53:21.205Z,997.43
2019-01-14T00:54:21.222Z,997.44
2019-01-14T00:55:21.227Z,997.43
2019-01-14T00:56:21.237Z,997.41
2019-01-14T00:57:21.251Z,997.48
2019-01-14T00:58:21.257Z,997.47
2019-01-14T00:59:21.269Z,997.50
2019-01-14T01:00:21.330Z,997.51
2019-01-14T01:01:21.295Z,997.53
2019-01-14T01:02:21.304Z,997.60
2019-01-14T01:03:21.330Z,997.59
2019-01-14T01:04:21.327Z,997.64
2019-01-14T01:05:21.334Z,997.65
2019-01-14T01:06:24.800Z,997.62
2019-01-14T01:07:21.359Z,997.68
2019-01-14T01:08:21.369Z,997.68
2019-01-14T01:09:21.387Z,997.75
2019-01-14T01:10:21.390Z,997.72
2019-01-14T01:11:21.401Z,997.74
2019-01-14T01:12:21.416Z,997.82
2019-01-14T01:13:21.424Z,997.80
2019-01-14T01:14:21.438Z,997.80
2019-01-14T01:15:21.453Z,997.86
2019-01-14T01:16:21.481Z,997.83
2019-01-14T01:17:21.472Z,997.88
2019-01-14T01:18:21.481Z,997.92
2019-01-14T01:19:21.492Z,997.85
2019-01-14T01:20:21.504Z,997.92
2019-01-14T01:21:21.510Z,997.97
2019-01-14T01:22:21.524Z,997.96
2019-01-14T01:23:21.532Z,997.98
2019-01-14T01:24:21.546Z,998.01
2019-01-14T01:25:21.563Z,998.03
2019-01-14T01:26:21.568Z,998.08
2019-01-14T01:27:21.579Z,998.09
2019-01-14T01:28:21.589Z,998.04
2019-01-14T01:29:21.605Z,998.12
2019-01-14T01:30:21.611Z,998.05
2019-01-14T01:31:21.625Z,998.09
2019-01-14T01:32:21.633Z,998.19
2019-01-14T01:33:21.656Z,998.19
2019-01-14T01:34:21.662Z,998.23
2019-01-14T01:35:21.665Z,998.30
2019-01-14T01:36:21.680Z,998.32
2019-01-14T01:37:21.691Z,998.23
2019-01-14T01:38:21.701Z,998.32
2019-01-14T01:39:21.710Z,998.34
2019-01-14T01:40:21.721Z,998.37
2019-01-14T01:41:21.741Z,998.29
2019-01-14T01:42:21.771Z,998.35
2019-01-14T01:43:21.756Z,998.44
2019-01-14T01:44:21.767Z,998.48
2019-01-14T01:45:21.780Z,998.47
2019-01-14T01:46:21.791Z,998.54
2019-01-14T01:48:21.809Z,998.57
2019-01-14T01:49:21.824Z,998.60
2019-01-14T01:50:22.256Z,998.59
2019-01-14T01:51:21.845Z,998.61
2019-01-14T01:52:21.855Z,998.59
2019-01-14T01:53:21.868Z,998.63
2019-01-14T01:54:21.880Z,998.69
2019-01-14T01:55:21.893Z,998.63
2019-01-14T01:56:21.902Z,998.66
2019-01-14T01:57:21.913Z,998.68
2019-01-14T01:58:21.924Z,998.75
2019-01-14T01:59:21.936Z,998.76
2019-01-14T02:00:21.954Z,998.75
2019-01-14T02:01:21.960Z,998.77
2019-01-14T02:02:21.968Z,998.80
2019-01-14T02:03:21.977Z,998.80
2019-01-14T02:04:22.001Z,998.84
2019-01-14T02:05:22.004Z,998.87
2019-01-14T02:06:22.014Z,998.90
2019-01-14T02:07:22.021Z,998.85
2019-01-14T02:08:22.035Z,998.90
2019-01-14T02:09:22.046Z,998.94
2019-01-14T02:10:22.053Z,998.98
2019-01-14T02:11:22.073Z,998.96
2019-01-14T02:12:22.077Z,998.97
2019-01-14T02:13:22.091Z,998.97
2019-01-14T02:14:22.099Z,998.97
2019-01-14T02:15:22.114Z,999.01
2019-01-14T02:16:22.120Z,999.04
2019-01-14T02:17:22.134Z,999.04
2019-01-14T02:18:22.142Z,999.07
2019-01-14T02:19:22.157Z,999.08
2019-01-14T02:20:22.265Z,999.08
2019-01-14T02:21:22.179Z,999.13
2019-01-14T02:22:22.190Z,999.12
2019-01-14T02:23:22.205Z,999.13
2019-01-14T02:24:22.216Z,999.14
2019-01-14T02:25:22.225Z,999.14
2019-01-14T02:26:22.235Z,999.17
2019-01-14T02:27:22.246Z,999.14
2019-01-14T02:28:22.258Z,999.16
2019-01-14T02:29:22.268Z,999.19
2019-01-14T02:30:22.283Z,999.23
2019-01-14T02:31:22.300Z,999.26
2019-01-14T02:32:22.301Z,999.33
2019-01-14T02:33:22.309Z,999.35
2019-01-14T02:34:22.322Z,999.36
2019-01-14T02:35:22.396Z,999.37
2019-01-14T02:36:22.353Z,999.44
2019-01-14T02:37:22.360Z,999.52
2019-01-14T02:38:22.384Z,999.48
2019-01-14T02:39:22.379Z,999.52
2019-01-14T02:40:22.387Z,999.51
2019-01-14T02:41:22.405Z,999.51
2019-01-14T02:42:22.444Z,999.49
2019-01-14T02:43:22.432Z,999.52
2019-01-14T02:44:22.503Z,999.55
2019-01-14T02:45:22.975Z,999.60
2019-01-14T02:46:22.450Z,999.59
2019-01-14T02:47:22.883Z,999.61
2019-01-14T02:48:22.622Z,999.64
2019-01-14T02:49:22.487Z,999.59
2019-01-14T02:50:22.567Z,999.69
2019-01-14T02:51:22.561Z,999.73
2019-01-14T02:52:22.515Z,999.76
2019-01-14T02:53:22.538Z,999.74
2019-01-14T02:54:22.537Z,999.75
2019-01-14T02:55:22.550Z,999.71
2019-01-14T02:56:22.561Z,999.74
2019-01-14T02:57:22.636Z,999.71
2019-01-14T02:58:22.580Z,999.74
2019-01-14T02:59:22.595Z,999.77
2019-01-14T03:00:22.608Z,999.77
2019-01-14T03:01:22.612Z,999.88
2019-01-14T03:02:22.628Z,999.91
2019-01-14T03:03:22.721Z,999.88
2019-01-14T03:04:22.648Z,999.95
2019-01-14T03:05:22.666Z,999.92
2019-01-14T03:06:22.673Z,999.97
2019-01-14T03:07:22.684Z,999.94
2019-01-14T03:08:22.693Z,999.94
2019-01-14T03:09:22.718Z,1000.01
2019-01-14T03:10:22.719Z,1000.01
2019-01-14T03:11:22.746Z,999.99
2019-01-14T03:12:22.739Z,1000.03
2019-01-14T03:13:22.745Z,1000.07
2019-01-14T03:14:22.763Z,1000.09
2019-01-14T03:15:22.774Z,1000.05
2019-01-14T03:16:22.780Z,1000.06
2019-01-14T03:17:22.798Z,1000.04
2019-01-14T03:18:22.810Z,1000.07
2019-01-14T03:19:22.813Z,1000.15
2019-01-14T03:20:22.829Z,1000.10
2019-01-14T03:21:22.838Z,1000.11
2019-01-14T03:22:22.847Z,1000.12
2019-01-14T03:23:22.856Z,1000.17
2019-01-14T03:24:22.867Z,1000.17
2019-01-14T03:25:22.884Z,1000.13
2019-01-14T03:26:22.893Z,1000.11
2019-01-14T03:27:22.908Z,1000.13
2019-01-14T03:28:22.909Z,1000.24
2019-01-14T03:29:22.922Z,1000.23
2019-01-14T03:30:22.974Z,1000.23
2019-01-14T03:31:22.947Z,1000.24
2019-01-14T03:32:22.957Z,1000.24
2019-01-14T03:33:22.968Z,1000.24
2019-01-14T03:34:23.088Z,1000.26
2019-01-14T03:35:22.986Z,1000.29
2019-01-14T03:36:23.000Z,1000.20
2019-01-14T03:37:23.014Z,1000.28
2019-01-14T03:38:23.042Z,1000.34
2019-01-14T03:39:23.207Z,1000.30
2019-01-14T03:40:23.047Z,1000.36
2019-01-14T03:41:23.058Z,1000.43
2019-01-14T03:42:23.063Z,1000.40
2019-01-14T03:43:23.078Z,1000.38
2019-01-14T03:44:23.093Z,1000.42
2019-01-14T03:45:23.098Z,1000.39
2019-01-14T03:46:23.113Z,1000.38
2019-01-14T03:47:23.122Z,1000.38
2019-01-14T03:48:23.129Z,1000.40
2019-01-14T03:49:23.146Z,1000.42
2019-01-14T03:50:23.156Z,1000.49
2019-01-14T03:51:23.166Z,1000.51
2019-01-14T03:52:23.180Z,1000.55
2019-01-14T03:53:23.185Z,1000.59
2019-01-14T03:54:23.198Z,1000.61
2019-01-14T03:55:23.207Z,1000.61
2019-01-14T03:56:23.228Z,1000.58
2019-01-14T03:57:23.230Z,1000.57
2019-01-14T03:58:23.239Z,1000.58
2019-01-14T04:00:23.267Z,1000.52
2019-01-14T04:01:23.275Z,1000.58
2019-01-14T04:02:23.345Z,1000.63
2019-01-14T04:03:23.290Z,1000.65
2019-01-14T04:04:23.307Z,1000.59
2019-01-14T04:05:23.315Z,1000.62
2019-01-14T04:06:23.324Z,1000.70
2019-01-14T04:07:23.341Z,1000.65
2019-01-14T04:08:23.352Z,1000.69
2019-01-14T04:09:23.362Z,1000.65
2019-01-14T04:10:23.370Z,1000.63
2019-01-14T04:11:23.381Z,1000.61
2019-01-14T04:12:23.418Z,1000.69
2019-01-14T04:13:23.404Z,1000.62
2019-01-14T04:14:23.418Z,1000.68
2019-01-14T04:15:23.426Z,1000.67
2019-01-14T04:16:23.433Z,1000.70
2019-01-14T04:17:23.458Z,1000.69
2019-01-14T04:18:23.472Z,1000.67
2019-01-14T04:19:23.467Z,1000.75
2019-01-14T04:20:23.481Z,1000.72
2019-01-14T04:21:23.488Z,1000.77
2019-01-14T04:22:23.499Z,1000.75
2019-01-14T04:23:23.510Z,1000.77
2019-01-14T04:24:23.521Z,1000.75
2019-01-14T04:25:23.542Z,1000.81
2019-01-14T04:26:23.567Z,1000.82
2019-01-14T04:27:23.550Z,1000.83
2019-01-14T04:28:23.562Z,1000.88
2019-01-14T04:29:23.575Z,1000.89
2019-01-14T04:30:23.574Z,1000.95
2019-01-14T04:31:23.590Z,1000.87
2019-01-14T04:32:23.599Z,1000.97
2019-01-14T04:33:23.611Z,1000.98
2019-01-14T04:34:23.618Z,1000.93
2019-01-14T04:35:23.684Z,1000.99
2019-01-14T04:36:23.644Z,1000.97
2019-01-14T04:37:23.659Z,1001.01
2019-01-14T04:38:23.662Z,1001.01
2019-01-14T04:39:23.676Z,1000.97
2019-01-14T04:40:23.687Z,1000.99
2019-01-14T04:41:23.698Z,1000.93
2019-01-14T04:42:23.710Z,1000.99
2019-01-14T04:43:23.717Z,1001.01
2019-01-14T04:44:23.734Z,1000.92
2019-01-14T04:45:23.740Z,1000.96
2019-01-14T04:46:23.749Z,1001.01
2019-01-14T04:47:23.760Z,1001.08
2019-01-14T04:48:23.774Z,1001.06
2019-01-14T04:49:23.785Z,1001.09
2019-01-14T04:50:23.798Z,1001.04
2019-01-14T04:51:23.821Z,1001.07
2019-01-14T04:52:23.816Z,1001.06
2019-01-14T04:53:23.831Z,1001.04
2019-01-14T04:54:23.837Z,1001.11
2019-01-14T04:55:23.847Z,1001.06
2019-01-14T04:56:23.863Z,1001.09
2019-01-14T04:57:23.872Z,1001.06
2019-01-14T04:58:23.882Z,1001.12
2019-01-14T04:59:23.890Z,1001.12
2019-01-14T05:00:23.904Z,1001.12
2019-01-14T05:01:23.917Z,1001.13
2019-01-14T05:02:23.924Z,1001.14
2019-01-14T05:03:23.937Z,1001.16
2019-01-14T05:04:24.056Z,1001.15
2019-01-14T05:05:23.958Z,1001.19
2019-01-14T05:06:24.030Z,1001.16
2019-01-14T05:07:29.499Z,1001.19
2019-01-14T05:08:23.994Z,1001.26
2019-01-14T05:09:24.004Z,1001.28
2019-01-14T05:10:24.014Z,1001.29
2019-01-14T05:11:24.020Z,1001.27
2019-01-14T05:12:24.032Z,1001.33
2019-01-14T05:13:24.086Z,1001.34
2019-01-14T05:14:24.056Z,1001.41
2019-01-14T05:15:24.118Z,1001.31
2019-01-14T05:16:24.105Z,1001.38
2019-01-14T05:17:24.098Z,1001.40
2019-01-14T05:18:24.100Z,1001.38
2019-01-14T05:19:24.108Z,1001.43
2019-01-14T05:20:24.120Z,1001.44
2019-01-14T05:21:24.129Z,1001.46
2019-01-14T05:22:24.141Z,1001.49
2019-01-14T05:23:24.158Z,1001.51
2019-01-14T05:24:24.168Z,1001.60
2019-01-14T05:25:24.176Z,1001.62
2019-01-14T05:26:24.264Z,1001.60
2019-01-14T05:27:24.197Z,1001.59
2019-01-14T05:28:24.214Z,1001.61
2019-01-14T05:29:24.221Z,1001.66
2019-01-14T05:30:24.231Z,1001.61
2019-01-14T05:31:24.241Z,1001.67
2019-01-14T05:32:24.250Z,1001.66
2019-01-14T05:33:24.268Z,1001.68
2019-01-14T05:34:24.280Z,1001.66
2019-01-14T05:35:24.299Z,1001.71
2019-01-14T05:36:24.297Z,1001.73
2019-01-14T05:37:24.309Z,1001.76
2019-01-14T05:38:24.437Z,1001.78
2019-01-14T05:39:24.387Z,1001.81
2019-01-14T05:40:24.338Z,1001.85
2019-01-14T05:41:24.354Z,1001.84
2019-01-14T05:42:24.372Z,1001.90
2019-01-14T05:43:24.374Z,1001.92
2019-01-14T05:44:24.390Z,1001.99
2019-01-14T05:45:24.396Z,1001.98
2019-01-14T05:46:24.408Z,1001.99
2019-01-14T05:47:24.420Z,1002.01
2019-01-14T05:48:24.428Z,1002.03
2019-01-14T05:49:24.552Z,1001.98
2019-01-14T05:50:24.765Z,1002.03
2019-01-14T05:51:24.456Z,1002.00
2019-01-14T05:52:24.472Z,1002.06
2019-01-14T05:53:24.492Z,1002.08
2019-01-14T05:54:24.491Z,1002.06
2019-01-14T05:55:24.503Z,1002.03
2019-01-14T05:56:24.600Z,1002.06
2019-01-14T05:57:24.571Z,1002.06
2019-01-14T05:58:24.565Z,1002.12
2019-01-14T05:59:24.548Z,1002.11
2019-01-14T06:00:24.559Z,1002.10
2019-01-14T06:01:24.567Z,1002.10
2019-01-14T06:02:24.595Z,1002.11
2019-01-14T06:03:24.601Z,1002.15
2019-01-14T06:04:24.614Z,1002.17
2019-01-14T06:05:24.608Z,1002.17
2019-01-14T06:06:24.622Z,1002.18
2019-01-14T06:07:24.640Z,1002.21
2019-01-14T06:08:24.664Z,1002.23
2019-01-14T06:09:24.653Z,1002.20
2019-01-14T06:10:24.668Z,1002.24
2019-01-14T06:11:24.685Z,1002.28
2019-01-14T06:12:25.001Z,1002.30
2019-01-14T06:13:24.704Z,1002.27
2019-01-14T06:14:24.716Z,1002.32
2019-01-14T06:15:24.776Z,1002.29
2019-01-14T06:16:24.736Z,1002.34
2019-01-14T06:17:24.743Z,1002.37
2019-01-14T06:18:24.759Z,1002.34
2019-01-14T06:19:24.835Z,1002.34
2019-01-14T06:20:24.772Z,1002.35
2019-01-14T06:21:24.798Z,1002.30
2019-01-14T06:22:24.846Z,1002.32
2019-01-14T06:23:24.804Z,1002.32
2019-01-14T06:24:24.817Z,1002.36
2019-01-14T06:25:24.829Z,1002.32
2019-01-14T06:26:24.843Z,1002.30
2019-01-14T06:27:24.845Z,1002.34
2019-01-14T06:28:24.857Z,1002.37
2019-01-14T06:29:24.871Z,1002.44
2019-01-14T06:30:24.881Z,1002.40
2019-01-14T06:31:24.893Z,1002.39
2019-01-14T06:32:24.902Z,1002.37
2019-01-14T06:33:24.927Z,1002.41
2019-01-14T06:34:24.932Z,1002.41
2019-01-14T06:35:24.945Z,1002.37
2019-01-14T06:36:24.948Z,1002.39
2019-01-14T06:37:24.957Z,1002.38
2019-01-14T06:38:24.978Z,1002.37
2019-01-14T06:39:24.981Z,1002.37
2019-01-14T06:40:25.011Z,1002.36
2019-01-14T06:42:25.316Z,1002.39
2019-01-14T06:43:25.024Z,1002.33
2019-01-14T06:44:25.048Z,1002.36
2019-01-14T06:45:25.041Z,1002.39
2019-01-14T06:46:25.053Z,1002.37
2019-01-14T06:47:25.070Z,1002.43
2019-01-14T06:48:25.075Z,1002.42
2019-01-14T06:49:25.092Z,1002.47
2019-01-14T06:50:25.097Z,1002.47
2019-01-14T06:51:25.106Z,1002.52
2019-01-14T06:52:25.134Z,1002.54
2019-01-14T06:53:25.127Z,1002.50
2019-01-14T06:54:25.139Z,1002.54
2019-01-14T06:55:25.154Z,1002.57
2019-01-14T06:56:25.173Z,1002.55
2019-01-14T06:57:25.271Z,1002.59
2019-01-14T06:58:25.181Z,1002.60
2019-01-14T06:59:25.196Z,1002.66
2019-01-14T07:00:25.206Z,1002.68
2019-01-14T07:01:25.215Z,1002.71
2019-01-14T07:02:25.226Z,1002.68
2019-01-14T07:03:25.237Z,1002.69
2019-01-14T07:04:25.247Z,1002.72
2019-01-14T07:05:25.255Z,1002.76
2019-01-14T07:06:25.272Z,1002.73
2019-01-14T07:07:25.282Z,1002.76
2019-01-14T07:08:25.288Z,1002.85
2019-01-14T07:09:25.304Z,1002.80
2019-01-14T07:10:25.435Z,1002.85
2019-01-14T07:11:25.468Z,1002.92
2019-01-14T07:12:25.339Z,1002.96
2019-01-14T07:13:25.344Z,1002.91
2019-01-14T07:14:25.366Z,1002.93
2019-01-14T07:15:25.367Z,1002.95
2019-01-14T07:16:27.006Z,1002.99
2019-01-14T07:17:25.614Z,1003.08
2019-01-14T07:19:25.647Z,1003.09
2019-01-14T07:20:26.028Z,1003.09
2019-01-14T07:22:26.019Z,1003.11
2019-01-14T07:23:25.446Z,1003.18
2019-01-14T07:24:25.528Z,1003.17
2019-01-14T07:25:25.476Z,1003.21
2019-01-14T07:26:25.485Z,1003.19
2019-01-14T07:27:25.490Z,1003.27
2019-01-14T07:28:25.504Z,1003.34
2019-01-14T07:29:25.590Z,1003.34
2019-01-14T07:30:25.535Z,1003.39
2019-01-14T07:33:25.552Z,1003.42
2019-01-14T07:34:25.569Z,1003.39
2019-01-14T07:35:26.041Z,1003.45
2019-01-14T07:36:26.067Z,1003.41
2019-01-14T07:37:25.820Z,1003.46
2019-01-14T07:38:26.123Z,1003.41
2019-01-14T07:39:25.646Z,1003.51
2019-01-14T07:40:25.626Z,1003.45
2019-01-14T07:41:25.695Z,1003.48
2019-01-14T07:42:25.658Z,1003.60
2019-01-14T07:43:25.676Z,1003.57
2019-01-14T07:44:25.666Z,1003.55
2019-01-14T07:45:25.682Z,1003.60
2019-01-14T07:46:25.726Z,1003.65
2019-01-14T07:47:25.704Z,1003.65
2019-01-14T07:48:25.733Z,1003.59
2019-01-14T07:49:25.733Z,1003.66
2019-01-14T07:50:25.737Z,1003.70
2019-01-14T07:51:25.747Z,1003.69
2019-01-14T07:52:25.753Z,1003.75
2019-01-14T07:53:25.770Z,1003.71
2019-01-14T07:54:25.774Z,1003.72
2019-01-14T07:55:25.787Z,1003.68
2019-01-14T07:56:25.797Z,1003.84
2019-01-14T07:57:25.811Z,1003.85
2019-01-14T07:58:25.814Z,1003.82
2019-01-14T07:59:25.834Z,1003.97
2019-01-14T08:00:25.848Z,1003.99
2019-01-14T08:01:25.861Z,1003.95
2019-01-14T08:02:25.858Z,1003.92
2019-01-14T08:03:27.146Z,1003.85
2019-01-14T08:04:25.896Z,1003.95
2019-01-14T08:05:25.888Z,1003.99
2019-01-14T08:06:25.900Z,1004.07
2019-01-14T08:07:25.918Z,1004.00
2019-01-14T08:08:25.922Z,1004.05
2019-01-14T08:09:25.935Z,1004.01
2019-01-14T08:10:25.946Z,1004.08
2019-01-14T08:11:25.950Z,1004.02
2019-01-14T08:12:26.023Z,1004.10
2019-01-14T08:13:25.975Z,1004.04
2019-01-14T08:14:25.983Z,1004.05
2019-01-14T08:15:25.996Z,1003.94
2019-01-14T08:16:26.020Z,1003.96
2019-01-14T08:17:26.032Z,1003.89
2019-01-14T08:18:26.034Z,1004.06
2019-01-14T08:19:26.043Z,1004.07
2019-01-14T08:20:26.049Z,1004.17
2019-01-14T08:21:26.075Z,1004.17
2019-01-14T08:22:26.072Z,1004.12
2019-01-14T08:23:26.077Z,1004.19
2019-01-14T08:24:26.089Z,1004.18
2019-01-14T08:25:26.098Z,1004.20
2019-01-14T08:26:26.108Z,1004.26
2019-01-14T08:27:26.119Z,1004.26
2019-01-14T08:28:26.131Z,1004.29
2019-01-14T08:29:26.141Z,1004.35
2019-01-14T08:30:26.613Z,1004.38
2019-01-14T08:31:26.706Z,1004.39
2019-01-14T08:32:26.705Z,1004.39
2019-01-14T08:33:26.182Z,1004.38
2019-01-14T08:34:26.189Z,1004.40
2019-01-14T08:35:26.418Z,1004.47
2019-01-14T08:36:26.208Z,1004.43
2019-01-14T08:37:26.228Z,1004.43
2019-01-14T08:38:26.226Z,1004.48
2019-01-14T08:39:26.241Z,1004.47
2019-01-14T08:40:26.251Z,1004.41
2019-01-14T08:41:26.262Z,1004.53
2019-01-14T08:42:26.268Z,1004.56
2019-01-14T08:43:26.297Z,1004.64
2019-01-14T08:44:26.288Z,1004.64
2019-01-14T08:45:26.308Z,1004.66
2019-01-14T08:46:26.322Z,1004.75
2019-01-14T08:47:26.339Z,1004.74
2019-01-14T08:48:26.383Z,1004.80
2019-01-14T08:49:26.340Z,1004.80
2019-01-14T08:50:26.360Z,1004.73
2019-01-14T08:51:26.365Z,1004.84
2019-01-14T08:52:26.372Z,1004.83
2019-01-14T08:53:26.385Z,1004.86
2019-01-14T08:54:26.412Z,1004.87
2019-01-14T08:55:26.405Z,1004.86
2019-01-14T08:56:26.430Z,1004.88
2019-01-14T08:57:26.428Z,1004.91
2019-01-14T08:58:26.442Z,1004.89
2019-01-14T08:59:26.448Z,1004.93
2019-01-14T09:00:26.467Z,1004.92
2019-01-14T09:01:26.481Z,1004.92
2019-01-14T09:02:26.482Z,1004.94
2019-01-14T09:03:26.491Z,1004.89
2019-01-14T09:04:32.394Z,1004.96
2019-01-14T09:05:26.508Z,1004.96
2019-01-14T09:06:26.569Z,1004.99
2019-01-14T09:07:26.541Z,1004.90
2019-01-14T09:08:28.838Z,1005.01
2019-01-14T09:09:26.549Z,1004.98
2019-01-14T09:10:26.566Z,1005.04
2019-01-14T09:11:26.573Z,1005.05
2019-01-14T09:12:26.579Z,1005.07
2019-01-14T09:13:26.621Z,1005.09
2019-01-14T09:14:26.606Z,1005.11
2019-01-14T09:15:26.615Z,1005.10
2019-01-14T09:16:26.621Z,1005.11
2019-01-14T09:17:26.634Z,1005.14
2019-01-14T09:18:26.645Z,1005.16
2019-01-14T09:19:26.654Z,1005.13
2019-01-14T09:20:26.662Z,1005.16
2019-01-14T09:21:26.677Z,1005.11
2019-01-14T09:22:26.691Z,1005.13
2019-01-14T09:23:26.696Z,1005.10
2019-01-14T09:24:26.707Z,1005.25
2019-01-14T09:25:26.737Z,1005.17
2019-01-14T09:26:26.728Z,1005.14
2019-01-14T09:27:26.735Z,1005.20
2019-01-14T09:28:26.749Z,1005.23
2019-01-14T09:29:26.763Z,1005.22
2019-01-14T09:30:26.767Z,1005.20
2019-01-14T09:31:26.779Z,1005.31
2019-01-14T09:32:26.795Z,1005.18
2019-01-14T09:33:26.801Z,1005.25
2019-01-14T09:34:26.815Z,1005.20
2019-01-14T09:35:26.822Z,1005.30
2019-01-14T09:36:26.834Z,1005.33
2019-01-14T09:37:26.838Z,1005.30
2019-01-14T09:38:26.853Z,1005.32
2019-01-14T09:39:26.864Z,1005.34
2019-01-14T09:40:26.870Z,1005.34
2019-01-14T09:41:26.899Z,1005.31
2019-01-14T09:42:28.065Z,1005.34
2019-01-14T09:43:26.902Z,1005.33
2019-01-14T09:44:26.916Z,1005.30
2019-01-14T09:45:26.948Z,1005.34
2019-01-14T09:46:26.935Z,1005.29
2019-01-14T09:47:26.944Z,1005.33
2019-01-14T09:48:26.967Z,1005.32
2019-01-14T09:49:26.967Z,1005.30
2019-01-14T09:50:26.983Z,1005.23
2019-01-14T09:51:26.988Z,1005.23
2019-01-14T09:52:28.431Z,1005.32
2019-01-14T09:53:27.189Z,1005.30
2019-01-14T09:55:27.035Z,1005.33
2019-01-14T09:56:27.040Z,1005.42
2019-01-14T09:57:27.051Z,1005.42
2019-01-14T09:58:27.079Z,1005.43
2019-01-14T09:59:27.075Z,1005.38
2019-01-14T10:00:27.115Z,1005.31
2019-01-14T10:01:27.274Z,1005.31
2019-01-14T10:02:27.114Z,1005.41
2019-01-14T10:03:27.118Z,1005.36
2019-01-14T10:04:27.124Z,1005.37
2019-01-14T10:05:27.134Z,1005.44
2019-01-14T10:06:27.150Z,1005.44
2019-01-14T10:07:28.559Z,1005.43
2019-01-14T10:08:27.189Z,1005.37
2019-01-14T10:09:27.226Z,1005.40
2019-01-14T10:10:27.189Z,1005.45
2019-01-14T10:11:27.194Z,1005.40
2019-01-14T10:12:27.209Z,1005.44
2019-01-14T10:13:27.248Z,1005.45
2019-01-14T10:14:27.228Z,1005.42
2019-01-14T10:15:28.072Z,1005.38
2019-01-14T10:16:27.254Z,1005.32
2019-01-14T10:17:27.263Z,1005.44
2019-01-14T10:18:27.273Z,1005.43
2019-01-14T10:19:27.286Z,1005.44
2019-01-14T10:20:27.296Z,1005.50
2019-01-14T10:21:27.303Z,1005.52
2019-01-14T10:22:27.411Z,1005.50
2019-01-14T10:23:29.771Z,1005.50
2019-01-14T10:24:28.231Z,1005.58
2019-01-14T10:25:27.347Z,1005.59
2019-01-14T10:26:27.363Z,1005.57
2019-01-14T10:27:27.365Z,1005.69
2019-01-14T10:28:27.375Z,1005.66
2019-01-14T10:29:27.405Z,1005.72
2019-01-14T10:30:27.395Z,1005.76
2019-01-14T10:31:27.411Z,1005.75
2019-01-14T10:32:27.421Z,1005.64
2019-01-14T10:33:27.444Z,1005.71
2019-01-14T10:34:27.438Z,1005.68
2019-01-14T10:35:27.451Z,1005.71
2019-01-14T10:36:27.461Z,1005.73
2019-01-14T10:37:27.475Z,1005.75
2019-01-14T10:38:27.484Z,1005.71
2019-01-14T10:39:27.493Z,1005.72
2019-01-14T10:40:27.522Z,1005.70
2019-01-14T10:41:27.515Z,1005.70
2019-01-14T10:42:27.526Z,1005.73
2019-01-14T10:43:27.533Z,1005.71
2019-01-14T10:44:27.555Z,1005.74
2019-01-14T10:45:27.557Z,1005.77
2019-01-14T10:46:27.570Z,1005.77
2019-01-14T10:47:27.575Z,1005.83
2019-01-14T10:48:27.586Z,1005.86
2019-01-14T10:49:27.600Z,1005.84
2019-01-14T10:50:27.607Z,1005.85
2019-01-14T10:51:27.626Z,1005.95
2019-01-14T10:52:27.643Z,1005.85
2019-01-14T10:53:27.642Z,1005.93
2019-01-14T10:54:27.662Z,1005.99
2019-01-14T10:55:27.665Z,1006.00
2019-01-14T10:56:27.676Z,1006.03
2019-01-14T10:57:27.835Z,1005.96
2019-01-14T10:58:27.693Z,1006.05
2019-01-14T10:59:27.778Z,1006.04
2019-01-14T11:00:27.774Z,1006.01
2019-01-14T11:01:27.762Z,1006.05
2019-01-14T11:02:27.738Z,1005.96
2019-01-14T11:03:27.751Z,1006.01
2019-01-14T11:04:27.763Z,1006.07
2019-01-14T11:05:27.785Z,1006.03
2019-01-14T11:06:27.780Z,1006.06
2019-01-14T11:07:27.795Z,1006.11
2019-01-14T11:08:27.800Z,1005.98
2019-01-14T11:09:27.819Z,1006.09
2019-01-14T11:10:27.838Z,1006.16
2019-01-14T11:11:27.838Z,1006.17
2019-01-14T11:12:27.845Z,1006.08
2019-01-14T11:13:27.861Z,1006.14
2019-01-14T11:14:27.869Z,1006.11
2019-01-14T11:15:27.879Z,1006.22
2019-01-14T11:16:27.902Z,1006.25
2019-01-14T11:17:27.931Z,1006.25
2019-01-14T11:18:27.928Z,1006.30
2019-01-14T11:19:27.925Z,1006.29
2019-01-14T11:20:27.991Z,1006.23
2019-01-14T11:21:27.944Z,1006.28
2019-01-14T11:23:28.020Z,1006.27
2019-01-14T11:24:27.979Z,1006.42
2019-01-14T11:25:27.989Z,1006.39
2019-01-14T11:26:27.998Z,1006.43
2019-01-14T11:27:28.011Z,1006.39
2019-01-14T11:28:28.023Z,1006.47
2019-01-14T11:29:28.036Z,1006.42
2019-01-14T11:30:28.051Z,1006.41
2019-01-14T11:31:28.054Z,1006.51
2019-01-14T11:32:28.071Z,1006.52
2019-01-14T11:33:28.078Z,1006.39
2019-01-14T11:34:28.089Z,1006.55
2019-01-14T11:35:28.099Z,1006.53
2019-01-14T11:36:28.114Z,1006.51
2019-01-14T11:37:28.147Z,1006.48
2019-01-14T11:38:28.130Z,1006.50
2019-01-14T11:39:28.168Z,1006.52
2019-01-14T11:40:28.165Z,1006.50
2019-01-14T11:41:28.166Z,1006.50
2019-01-14T11:42:28.174Z,1006.55
2019-01-14T11:43:28.188Z,1006.52
2019-01-14T11:44:28.197Z,1006.51
2019-01-14T11:45:28.212Z,1006.54
2019-01-14T11:46:28.219Z,1006.56
2019-01-14T11:47:28.247Z,1006.66
2019-01-14T11:48:28.241Z,1006.63
2019-01-14T11:49:28.267Z,1006.55
2019-01-14T11:50:28.267Z,1006.56
2019-01-14T11:51:28.273Z,1006.56
2019-01-14T11:52:28.288Z,1006.54
2019-01-14T11:53:28.299Z,1006.44
2019-01-14T11:54:28.310Z,1006.47
2019-01-14T11:55:28.328Z,1006.37
2019-01-14T11:56:28.359Z,1006.40
2019-01-14T11:57:28.341Z,1006.43
2019-01-14T11:58:28.357Z,1006.47
2019-01-14T11:59:28.371Z,1006.49
2019-01-14T12:00:28.376Z,1006.50
2019-01-14T12:01:28.391Z,1006.53
2019-01-14T12:02:28.397Z,1006.43
2019-01-14T12:03:28.408Z,1006.47
2019-01-14T12:04:28.419Z,1006.48
2019-01-14T12:05:28.447Z,1006.48
2019-01-14T12:06:28.449Z,1006.54
2019-01-14T12:07:28.698Z,1006.57
2019-01-14T12:08:28.466Z,1006.56
2019-01-14T12:09:28.714Z,1006.63
2019-01-14T12:10:28.501Z,1006.68
2019-01-14T12:11:28.531Z,1006.76
2019-01-14T12:12:28.535Z,1006.72
2019-01-14T12:13:28.517Z,1006.75
2019-01-14T12:14:28.527Z,1006.69
2019-01-14T12:15:28.574Z,1006.75
2019-01-14T12:16:28.548Z,1006.73
2019-01-14T12:17:28.564Z,1006.79
2019-01-14T12:18:28.571Z,1006.77
2019-01-14T12:19:28.581Z,1006.76
2019-01-14T12:20:28.700Z,1006.75